Time;durP1;ratioP1;P1;durP2;ratioP2;P2;SDS_P1;SDS_P2;PMS_P1;PMS_P2;Temp;Humidity;BMP_temperature;BMP_pressure;BME280_temperature;BME280_humidity;BME280_pressure;Samples;Min_cycle;Max_cycle;Signal;HPM_P1;HPM_P2
2022/02/13 00:00:09;;;;;;;2.20;0.90;;;;;;;-3.95;78.12;100642.16;104845;1271;75131;-23
2022/02/13 00:02:41;;;;;;;1.80;1.30;;;;;;;-4.23;78.90;100638.48;104651;1271;74257;-24
2022/02/13 00:05:10;;;;;;;2.80;1.20;;;;;;;-4.45;79.22;100632.94;104850;1271;61147;-23
2022/02/13 00:07:39;;;;;;;2.70;1.40;;;;;;;-4.65;80.19;100634.68;104907;1270;62077;-23
2022/02/13 00:10:11;;;;;;;4.60;1.00;;;;;;;-4.81;80.51;100641.17;104909;1271;75526;-23
2022/02/13 00:12:40;;;;;;;2.00;1.40;;;;;;;-4.32;80.29;100645.04;104821;1271;75031;-23
2022/02/13 00:15:11;;;;;;;2.00;1.10;;;;;;;-3.54;78.28;100646.86;104791;1271;74760;-23
2022/02/13 00:17:39;;;;;;;4.30;1.20;;;;;;;-3.37;77.28;100651.81;104799;1274;61266;-24
2022/02/13 00:20:21;;;;;;;4.60;1.40;;;;;;;-3.53;77.21;100644.32;104880;1271;61127;-24
2022/02/13 00:22:50;;;;;;;3.60;1.40;;;;;;;-3.78;77.62;100637.46;104951;1271;75332;-24
2022/02/13 00:25:19;;;;;;;2.30;1.10;;;;;;;-4.03;77.77;100644.51;104911;1274;75757;-23
2022/02/13 00:27:48;;;;;;;1.70;1.10;;;;;;;-4.29;78.41;100641.33;104825;1271;73019;-24
2022/02/13 00:30:17;;;;;;;4.30;1.50;;;;;;;-4.51;79.07;100633.58;105028;1271;61102;-23
2022/02/13 00:32:45;;;;;;;2.00;1.30;;;;;;;-4.72;79.47;100638.03;105144;1271;62300;-25
2022/02/13 00:35:15;;;;;;;3.50;1.30;;;;;;;-4.89;79.92;100631.81;105036;1271;75886;-23
2022/02/13 00:37:43;;;;;;;4.70;1.40;;;;;;;-4.42;80.29;100623.63;104908;1271;76369;-24
2022/02/13 00:40:12;;;;;;;2.50;1.80;;;;;;;-3.54;78.29;100629.37;104909;1274;73199;-23
2022/02/13 00:42:41;;;;;;;3.20;1.40;;;;;;;-3.37;77.53;100629.23;104913;1271;61130;-23
2022/02/13 00:45:11;;;;;;;2.20;1.30;;;;;;;-3.46;77.48;100617.66;104883;1271;61747;-24
2022/02/13 00:47:40;;;;;;;15.30;4.00;;;;;;;-3.72;76.85;100611.85;104761;1271;75601;-24
2022/02/13 00:50:08;;;;;;;8.20;3.20;;;;;;;-4.11;77.04;100604.77;104920;1271;75709;-24
2022/02/13 00:52:37;;;;;;;10.20;3.10;;;;;;;-4.47;77.82;100593.41;104883;1271;74440;-24
2022/02/13 00:55:05;;;;;;;7.80;2.80;;;;;;;-4.82;78.70;100591.52;104907;1271;61035;-23
2022/02/13 00:57:34;;;;;;;3.70;1.60;;;;;;;-5.16;79.35;100592.13;104933;1271;62063;-23
2022/02/13 01:00:03;;;;;;;2.40;1.30;;;;;;;-5.12;80.18;100591.48;104881;1271;75366;-23
2022/02/13 01:02:33;;;;;;;2.10;1.40;;;;;;;-4.45;78.85;100590.22;104804;1271;75026;-24
2022/02/13 01:05:03;;;;;;;2.80;1.60;;;;;;;-4.26;77.60;100593.87;104887;1271;74483;-23
2022/02/13 01:07:33;;;;;;;3.50;1.40;;;;;;;-4.41;77.75;100589.38;105128;1274;61159;-23
2022/02/13 01:10:03;;;;;;;3.00;1.40;;;;;;;-4.63;78.68;100584.69;105151;1271;61060;-23
2022/02/13 01:12:32;;;;;;;2.70;1.00;;;;;;;-4.87;79.12;100587.27;105108;1272;75569;-24
2022/02/13 01:15:01;;;;;;;1.10;1.00;;;;;;;-5.18;79.25;100593.30;105029;1271;75902;-24
2022/02/13 01:17:31;;;;;;;2.00;0.80;;;;;;;-5.49;80.71;100583.05;104931;1271;71615;-23
2022/02/13 01:20:00;;;;;;;0.80;0.70;;;;;;;-5.38;81.43;100579.27;105080;1271;62590;-23
2022/02/13 01:22:44;;;;;;;1.80;1.20;;;;;;;-4.66;79.84;100582.98;105145;1271;61025;-24
2022/02/13 01:25:12;;;;;;;8.20;2.30;;;;;;;-4.47;79.06;100581.90;105146;1271;75461;-24
2022/02/13 01:27:41;;;;;;;0.90;0.60;;;;;;;-4.62;79.11;100580.12;105130;1271;75777;-23
2022/02/13 01:30:10;;;;;;;3.00;1.70;;;;;;;-4.88;80.72;100577.77;104869;1271;339425;-23
2022/02/13 01:32:39;;;;;;;3.80;1.80;;;;;;;-5.09;82.00;100571.86;105079;1271;61071;-23
2022/02/13 01:35:09;;;;;;;2.90;1.60;;;;;;;-5.20;83.12;100558.58;104934;1271;61038;-23
2022/02/13 01:37:39;;;;;;;1.90;1.10;;;;;;;-4.69;81.57;100561.27;104866;1272;75737;-23
2022/02/13 01:40:08;;;;;;;1.70;1.40;;;;;;;-4.27;79.95;100568.07;105130;1271;76002;-24
2022/02/13 01:42:37;;;;;;;3.60;2.00;;;;;;;-4.21;79.58;100559.96;105098;1271;74136;-24
2022/02/13 01:45:06;;;;;;;3.80;2.10;;;;;;;-4.34;79.12;100549.38;104890;1271;61075;-23
2022/02/13 01:47:38;;;;;;;2.10;1.10;;;;;;;-4.66;79.25;100561.27;104999;1271;62332;-23
2022/02/13 01:50:08;;;;;;;3.20;1.80;;;;;;;-5.04;80.96;100561.91;105081;1271;75623;-23
2022/02/13 01:52:38;;;;;;;2.30;1.30;;;;;;;-5.25;81.46;100554.81;104837;1272;75770;-23
2022/02/13 01:55:07;;;;;;;6.50;1.90;;;;;;;-5.40;82.88;100560.63;104761;1272;74565;-23
2022/02/13 01:57:36;;;;;;;3.50;1.50;;;;;;;-4.82;82.53;100556.27;104721;1271;61330;-23
2022/02/13 02:00:06;;;;;;;4.50;2.90;;;;;;;-4.37;80.88;100555.15;105107;1271;61178;-24
2022/02/13 02:02:44;;;;;;;1.30;1.10;;;;;;;-4.42;79.71;100558.01;105084;1271;76504;-24
2022/02/13 02:05:13;;;;;;;6.30;3.30;;;;;;;-4.74;81.25;100558.87;105120;1274;75951;-23
2022/02/13 02:07:42;;;;;;;5.90;2.50;;;;;;;-4.88;81.72;100553.02;104960;1274;73043;-23
2022/02/13 02:10:11;;;;;;;3.00;1.60;;;;;;;-5.11;82.18;100551.88;105083;1274;61142;-23
2022/02/13 02:12:39;;;;;;;3.00;1.60;;;;;;;-5.25;83.50;100546.00;105152;1271;61200;-23
2022/02/13 02:15:09;;;;;;;4.30;2.10;;;;;;;-4.68;82.35;100541.95;105187;1271;75506;-23
2022/02/13 02:17:38;;;;;;;2.50;1.30;;;;;;;-4.21;80.11;100541.98;105162;1271;75724;-24
2022/02/13 02:20:07;;;;;;;7.00;2.40;;;;;;;-4.22;79.27;100540.11;105161;1271;73287;-24
2022/02/13 02:22:36;;;;;;;4.30;1.90;;;;;;;-4.44;79.33;100539.35;105091;1271;61049;-23
2022/02/13 02:25:06;;;;;;;1.90;1.70;;;;;;;-4.76;79.96;100537.67;105091;1271;61931;-23
2022/02/13 02:27:34;;;;;;;2.10;1.40;;;;;;;-5.07;81.04;100535.13;105129;1271;74488;-24
2022/02/13 02:30:03;;;;;;;2.80;1.40;;;;;;;-5.36;81.57;100534.93;105070;1274;75777;-23
2022/02/13 02:32:33;;;;;;;5.20;2.00;;;;;;;-5.16;81.95;100537.77;105058;1271;74398;-23
2022/02/13 02:35:03;;;;;;;4.80;2.10;;;;;;;-4.62;79.92;100538.25;104904;1271;61141;-23
2022/02/13 02:37:31;;;;;;;3.90;2.10;;;;;;;-4.57;79.99;100534.89;104708;1271;62080;-23
2022/02/13 02:39:59;;;;;;;6.90;4.60;;;;;;;-4.68;80.47;100527.72;105061;1274;75480;-24
2022/02/13 02:42:28;;;;;;;3.30;1.50;;;;;;;-4.92;81.83;100525.90;104807;1271;74775;-23
2022/02/13 02:44:57;;;;;;;3.60;1.50;;;;;;;-5.10;81.63;100523.41;105016;1271;74160;-23
2022/02/13 02:47:26;;;;;;;2.70;1.70;;;;;;;-5.31;81.00;100516.50;104954;1271;63592;-23
2022/02/13 02:49:54;;;;;;;3.50;1.60;;;;;;;-4.91;79.83;100518.27;104987;1271;61042;-23
2022/02/13 02:52:23;;;;;;;3.30;1.80;;;;;;;-4.65;78.20;100522.30;105007;1271;75627;-24
2022/02/13 02:56:35;;;;;;;1.90;1.30;;;;;;;-4.99;78.54;100523.48;101770;1310;601139;-24
2022/02/13 02:59:04;;;;;;;4.60;2.50;;;;;;;-5.34;79.51;100524.27;104445;1284;61090;-23
2022/02/13 03:01:33;;;;;;;2.00;1.40;;;;;;;-5.57;81.76;100520.70;104344;1284;61136;-23
2022/02/13 03:04:01;;;;;;;1.90;1.10;;;;;;;-5.71;84.28;100519.39;104485;1284;75036;-23
2022/02/13 03:06:29;;;;;;;5.10;2.60;;;;;;;-5.41;84.31;100518.11;104333;1286;75900;-23
2022/02/13 03:08:58;;;;;;;4.90;2.80;;;;;;;-4.78;82.38;100529.53;104495;1284;72203;-23
2022/02/13 03:11:28;;;;;;;5.80;2.00;;;;;;;-4.44;80.79;100523.24;104388;1281;61147;-23
2022/02/13 03:13:57;;;;;;;4.90;2.30;;;;;;;-4.54;80.05;100517.77;104582;1281;61055;-23
2022/02/13 03:16:26;;;;;;;11.70;3.10;;;;;;;-4.81;81.01;100515.96;104577;1281;73750;-23
2022/02/13 03:18:54;;;;;;;5.30;2.20;;;;;;;-5.01;80.92;100508.05;104565;1281;75708;-23
2022/02/13 03:21:22;;;;;;;6.30;2.40;;;;;;;-5.26;81.11;100501.80;104460;1281;76087;-23
2022/02/13 03:23:51;;;;;;;2.60;1.10;;;;;;;-5.49;81.40;100501.14;104502;1281;61201;-23
2022/02/13 03:26:23;;;;;;;4.60;1.90;;;;;;;-5.26;81.81;100503.66;104127;1281;62258;-23
2022/02/13 03:28:52;;;;;;;4.60;1.80;;;;;;;-4.60;80.96;100499.96;104235;1281;74948;-23
2022/02/13 03:31:22;;;;;;;7.40;2.60;;;;;;;-4.41;79.62;100495.61;104168;1281;75955;-24
2022/02/13 03:33:51;;;;;;;5.80;2.50;;;;;;;-4.61;79.82;100494.88;104326;1281;74382;-24
2022/02/13 03:36:20;;;;;;;3.80;2.20;;;;;;;-4.89;80.47;100494.91;104318;1281;61144;-25
2022/02/13 03:38:48;;;;;;;8.70;2.70;;;;;;;-5.08;81.71;100486.17;104348;1281;61729;-23
2022/02/13 03:41:16;;;;;;;3.70;2.20;;;;;;;-5.19;81.85;100491.87;104235;1281;74722;-24
2022/02/13 03:43:45;;;;;;;15.80;4.00;;;;;;;-4.70;79.93;100497.02;104252;1281;76017;-23
2022/02/13 03:46:13;;;;;;;6.40;3.10;;;;;;;-4.40;78.20;100486.80;104432;1284;74402;-23
2022/02/13 03:48:42;;;;;;;3.70;2.40;;;;;;;-4.52;77.67;100490.66;104423;1281;60991;-25
2022/02/13 03:51:10;;;;;;;5.50;3.20;;;;;;;-4.84;78.17;100497.81;104588;1277;61111;-22
2022/02/13 03:53:39;;;;;;;3.70;2.50;;;;;;;-5.14;79.14;100484.45;104684;1277;74029;-22
2022/02/13 03:56:07;;;;;;;7.90;2.70;;;;;;;-5.41;79.76;100480.88;105047;1272;74028;-24
2022/02/13 03:58:36;;;;;;;1.90;1.50;;;;;;;-5.66;80.65;100487.81;104773;1275;74267;-24
2022/02/13 04:01:04;;;;;;;4.00;3.00;;;;;;;-5.61;82.44;100479.36;105090;1274;63642;-24
2022/02/13 04:03:32;;;;;;;5.40;2.10;;;;;;;-4.97;81.44;100476.91;105109;1274;62029;-24
2022/02/13 04:06:03;;;;;;;5.00;2.50;;;;;;;-4.74;79.26;100480.06;104939;1274;74810;-22
2022/02/13 04:08:31;;;;;;;5.60;3.00;;;;;;;-4.88;79.04;100477.13;104634;1274;76144;-22
2022/02/13 04:11:10;;;;;;;9.10;3.30;;;;;;;-5.18;78.75;100475.95;104707;1274;74610;-22
2022/02/13 04:13:38;;;;;;;7.80;2.70;;;;;;;-5.46;79.46;100464.25;104851;1274;61137;-22
2022/02/13 04:16:08;;;;;;;4.50;2.60;;;;;;;-5.73;80.11;100463.20;104970;1274;61135;-22
2022/02/13 04:18:37;;;;;;;6.30;2.30;;;;;;;-5.96;81.21;100463.19;104708;1274;73001;-22
2022/02/13 04:21:06;;;;;;;4.20;1.80;;;;;;;-6.14;81.28;100459.84;105091;1274;76152;-22
2022/02/13 04:23:34;;;;;;;3.80;1.90;;;;;;;-5.71;81.49;100462.04;105089;1274;74165;-22
2022/02/13 04:26:02;;;;;;;5.10;2.60;;;;;;;-4.88;79.29;100458.83;105118;1274;61131;-24
2022/02/13 04:28:31;;;;;;;6.80;4.30;;;;;;;-4.60;78.60;100456.73;104745;1274;61035;-25
2022/02/13 04:30:59;;;;;;;8.30;3.10;;;;;;;-4.71;78.25;100461.60;104872;1274;74461;-24
2022/02/13 04:33:28;;;;;;;7.70;3.00;;;;;;;-5.00;77.95;100465.88;105189;1274;75762;-24
2022/02/13 04:35:56;;;;;;;10.50;3.80;;;;;;;-5.37;78.25;100462.45;104980;1274;74566;-24
2022/02/13 04:38:25;;;;;;;6.50;3.10;;;;;;;-5.74;78.72;100462.36;104866;1274;61137;-24
2022/02/13 04:40:54;;;;;;;7.80;2.60;;;;;;;-6.08;79.63;100464.46;104775;1274;61066;-24
2022/02/13 04:43:22;;;;;;;11.80;4.30;;;;;;;-6.36;80.76;100451.52;105099;1274;74525;-22
2022/02/13 04:45:50;;;;;;;6.70;1.70;;;;;;;-6.37;81.44;100447.27;105100;1274;75738;-22
2022/02/13 04:48:19;;;;;;;9.80;3.20;;;;;;;-5.62;79.78;100445.86;105069;1274;74377;-22
2022/02/13 04:50:48;;;;;;;9.90;3.40;;;;;;;-5.16;78.64;100444.46;105084;1274;61035;-22
2022/02/13 04:53:16;;;;;;;6.50;3.30;;;;;;;-5.22;77.54;100442.40;104895;1274;61056;-24
2022/02/13 04:55:44;;;;;;;4.00;2.50;;;;;;;-5.49;77.42;100438.01;104699;1274;74543;-24
2022/02/13 04:58:13;;;;;;;8.00;3.30;;;;;;;-5.81;78.06;100439.29;104711;1274;76170;-22
2022/02/13 05:00:41;;;;;;;6.00;3.10;;;;;;;-6.09;79.16;100441.63;105074;1274;74363;-24
2022/02/13 05:03:10;;;;;;;6.60;3.30;;;;;;;-6.37;79.63;100449.31;105125;1274;62675;-24
2022/02/13 05:05:39;;;;;;;3.30;1.80;;;;;;;-6.66;80.24;100445.79;105130;1274;62041;-24
2022/02/13 05:08:07;;;;;;;6.40;2.50;;;;;;;-6.77;80.83;100443.45;104886;1274;74776;-22
2022/02/13 05:10:36;;;;;;;4.10;2.20;;;;;;;-6.13;80.48;100440.55;105126;1274;75953;-23
2022/02/13 05:13:06;;;;;;;2.80;1.60;;;;;;;-5.56;78.49;100438.13;105101;1274;73436;-22
2022/02/13 05:15:34;;;;;;;4.80;2.90;;;;;;;-5.48;78.79;100437.16;105082;1274;61124;-22
2022/02/13 05:18:02;;;;;;;12.70;2.30;;;;;;;-5.60;79.59;100431.50;104927;1274;61140;-22
2022/02/13 05:20:32;;;;;;;1.60;1.40;;;;;;;-5.76;80.94;100429.70;105117;1274;74645;-22
2022/02/13 05:23:00;;;;;;;6.10;2.90;;;;;;;-5.88;82.06;100433.66;105105;1274;74694;-22
2022/02/13 05:25:28;;;;;;;3.70;1.90;;;;;;;-5.99;82.40;100434.77;104909;1274;74542;-22
2022/02/13 05:27:56;;;;;;;3.00;1.90;;;;;;;-6.11;82.05;100446.17;105116;1274;62718;-22
2022/02/13 05:30:25;;;;;;;3.70;2.10;;;;;;;-5.60;81.04;100441.99;105092;1274;61108;-22
2022/02/13 05:32:54;;;;;;;4.80;2.30;;;;;;;-5.01;78.71;100446.07;104901;1274;74694;-22
2022/02/13 05:35:22;;;;;;;2.90;1.70;;;;;;;-4.97;78.21;100445.07;105064;1274;76027;-24
2022/02/13 05:37:51;;;;;;;1.20;1.10;;;;;;;-5.18;78.73;100446.81;104931;1274;74175;-25
2022/02/13 05:40:20;;;;;;;3.00;1.90;;;;;;;-5.37;80.32;100440.29;105126;1274;61131;-22
2022/02/13 05:42:48;;;;;;;2.00;1.40;;;;;;;-5.56;80.57;100443.20;105120;1274;61123;-24
2022/02/13 05:45:16;;;;;;;3.10;1.50;;;;;;;-5.75;81.63;100437.48;105142;1274;73658;-23
2022/02/13 05:47:46;;;;;;;3.00;1.80;;;;;;;-5.74;82.04;100439.69;105093;1274;74473;-23
2022/02/13 05:50:18;;;;;;;2.30;1.60;;;;;;;-5.04;81.51;100438.25;105096;1274;74494;-23
2022/02/13 05:52:46;;;;;;;3.20;1.70;;;;;;;-4.69;79.24;100443.33;104803;1277;61028;-23
2022/02/13 05:55:15;;;;;;;3.90;2.50;;;;;;;-4.72;78.82;100442.62;105068;1274;61844;-23
2022/02/13 05:57:45;;;;;;;2.80;1.90;;;;;;;-4.92;79.11;100440.86;105118;1274;74517;-24
2022/02/13 06:00:14;;;;;;;7.60;2.70;;;;;;;-5.17;79.70;100446.66;104878;1274;75134;-23
2022/02/13 06:02:44;;;;;;;2.10;1.50;;;;;;;-5.39;80.34;100440.10;104814;1274;74078;-23
2022/02/13 06:05:12;;;;;;;2.50;1.10;;;;;;;-5.47;81.42;100445.13;104878;1274;62413;-23
2022/02/13 06:07:42;;;;;;;2.50;2.30;;;;;;;-4.90;81.12;100451.70;105138;1274;61083;-23
2022/02/13 06:10:12;;;;;;;3.40;2.00;;;;;;;-4.43;78.94;100450.68;104653;1274;74710;-23
2022/02/13 06:12:44;;;;;;;4.80;2.80;;;;;;;-4.42;78.36;100452.38;104779;1274;75327;-23
2022/02/13 06:15:14;;;;;;;3.60;2.40;;;;;;;-4.52;78.95;100453.55;104890;1274;74540;-23
2022/02/13 06:17:42;;;;;;;6.40;3.90;;;;;;;-4.68;78.99;100455.19;105116;1274;61125;-24
2022/02/13 06:20:10;;;;;;;5.30;2.50;;;;;;;-4.80;79.80;100446.48;105039;1274;61927;-23
2022/02/13 06:22:39;;;;;;;8.00;3.20;;;;;;;-4.92;80.28;100446.29;105113;1274;73482;-25
2022/02/13 06:25:07;;;;;;;3.90;2.50;;;;;;;-4.97;80.93;100446.76;105109;1274;74828;-23
2022/02/13 06:27:36;;;;;;;9.20;3.90;;;;;;;-4.42;80.61;100447.44;105130;1274;74430;-23
2022/02/13 06:30:04;;;;;;;11.60;4.80;;;;;;;-3.72;78.47;100449.23;105091;1274;61260;-24
2022/02/13 06:32:33;;;;;;;6.40;3.40;;;;;;;-3.58;77.33;100445.16;104752;1274;61099;-22
2022/02/13 06:35:01;;;;;;;7.90;4.30;;;;;;;-3.67;77.56;100448.55;104905;1274;73868;-23
2022/02/13 06:37:31;;;;;;;5.60;3.00;;;;;;;-3.87;78.13;100445.34;105085;1274;76067;-23
2022/02/13 06:39:59;;;;;;;3.90;2.00;;;;;;;-4.02;78.78;100436.85;105121;1273;72897;-23
2022/02/13 06:42:27;;;;;;;11.60;3.20;;;;;;;-4.14;79.82;100434.46;105128;1274;61200;-23
2022/02/13 06:44:56;;;;;;;4.80;2.50;;;;;;;-4.13;80.44;100433.27;104919;1274;61824;-23
2022/02/13 06:47:24;;;;;;;5.60;3.50;;;;;;;-3.52;79.13;100430.55;104900;1274;74404;-23
2022/02/13 06:49:52;;;;;;;6.60;3.40;;;;;;;-3.13;77.21;100430.13;105008;1273;75089;-24
2022/02/13 06:52:21;;;;;;;4.90;3.20;;;;;;;-3.17;77.41;100427.59;104799;1274;73254;-23
2022/02/13 06:54:49;;;;;;;6.20;3.90;;;;;;;-3.24;77.43;100419.79;104809;1274;61129;-23
2022/02/13 06:57:17;;;;;;;7.30;2.70;;;;;;;-3.37;78.21;100424.06;104781;1274;61155;-23
2022/02/13 06:59:46;;;;;;;5.30;2.30;;;;;;;-3.46;79.05;100425.95;104877;1274;74696;-23
2022/02/13 07:02:14;;;;;;;3.10;2.20;;;;;;;-3.33;79.55;100427.10;105078;1274;74752;-23
2022/02/13 07:04:42;;;;;;;3.20;2.20;;;;;;;-2.77;78.05;100426.40;105103;1274;74387;-23
2022/02/13 07:07:11;;;;;;;4.40;1.60;;;;;;;-2.56;76.80;100427.34;105099;1274;61064;-23
2022/02/13 07:09:39;;;;;;;2.40;1.90;;;;;;;-2.63;76.11;100418.17;105095;1274;61111;-23
2022/02/13 07:12:12;;;;;;;4.40;1.00;;;;;;;-2.77;76.46;100418.44;105091;1274;74701;-23
2022/02/13 07:14:41;;;;;;;2.10;1.50;;;;;;;-2.74;77.10;100417.73;105125;1274;75246;-23
2022/02/13 07:17:10;;;;;;;2.90;1.80;;;;;;;-2.80;77.23;100423.54;104837;1274;73438;-23
2022/02/13 07:19:38;;;;;;;3.00;1.50;;;;;;;-2.68;77.25;100416.52;105075;1274;61026;-24
2022/02/13 07:22:08;;;;;;;1.90;1.20;;;;;;;-2.63;77.11;100413.26;104878;1274;61061;-24
2022/02/13 07:24:40;;;;;;;1.30;1.10;;;;;;;-2.53;77.21;100416.43;105021;1274;75624;-24
2022/02/13 07:27:09;;;;;;;2.90;1.30;;;;;;;-2.45;76.91;100414.17;104866;1274;75721;-23
2022/02/13 07:29:37;;;;;;;1.80;1.00;;;;;;;-2.38;76.35;100410.39;104673;1274;73287;-24
2022/02/13 07:32:06;;;;;;;1.20;0.80;;;;;;;-2.37;76.55;100411.06;104968;1274;61106;-24
2022/02/13 07:34:36;;;;;;;3.20;1.20;;;;;;;-2.21;76.72;100407.05;104714;1274;61707;-26
2022/02/13 07:37:08;;;;;;;2.10;1.20;;;;;;;-2.02;76.04;100405.20;105143;1274;75598;-23
2022/02/13 07:39:36;;;;;;;2.70;1.50;;;;;;;-2.04;75.66;100402.84;104733;1274;76388;-23
2022/02/13 07:42:05;;;;;;;1.60;1.10;;;;;;;-1.93;75.78;100390.84;104786;1274;72861;-23
2022/02/13 07:44:34;;;;;;;3.40;1.40;;;;;;;-1.82;74.93;100391.61;104871;1274;61451;-23
2022/02/13 07:47:04;;;;;;;6.60;2.20;;;;;;;-1.83;74.51;100384.80;104746;1272;60996;-23
2022/02/13 07:49:32;;;;;;;2.20;1.00;;;;;;;-1.75;74.77;100384.72;104786;1275;75657;-23
2022/02/13 07:52:00;;;;;;;2.10;1.00;;;;;;;-1.53;74.35;100389.28;105082;1274;76111;-23
2022/02/13 07:54:29;;;;;;;2.40;1.00;;;;;;;-1.54;72.80;100382.83;105100;1274;73423;-23
2022/02/13 07:56:57;;;;;;;3.30;1.20;;;;;;;-1.61;72.45;100379.98;104848;1274;61121;-23
2022/02/13 07:59:31;;;;;;;2.20;1.50;;;;;;;-1.56;72.69;100380.80;105120;1274;61083;-23
2022/02/13 08:02:00;;;;;;;3.30;1.80;;;;;;;-1.52;72.94;100380.05;104813;1274;75263;-23
2022/02/13 08:04:28;;;;;;;3.70;1.40;;;;;;;-1.57;72.96;100377.05;105103;1274;75029;-23
2022/02/13 08:06:57;;;;;;;2.90;2.00;;;;;;;-1.43;72.94;100363.97;104850;1274;74419;-24
2022/02/13 08:09:26;;;;;;;2.40;1.60;;;;;;;-1.35;71.88;100366.44;105122;1274;61087;-23
2022/02/13 08:11:55;;;;;;;1.40;1.10;;;;;;;-1.44;70.22;100359.89;105173;1274;61054;-24
2022/02/13 08:14:25;;;;;;;4.20;1.90;;;;;;;-1.37;70.84;100364.73;105090;1274;74507;-23
2022/02/13 08:16:53;;;;;;;2.60;1.80;;;;;;;-1.31;69.65;100355.30;105110;1274;76037;-24
2022/02/13 08:19:22;;;;;;;2.10;1.50;;;;;;;-1.23;70.42;100364.77;104868;1274;73435;-23
2022/02/13 08:21:50;;;;;;;2.30;1.30;;;;;;;-1.07;68.99;100352.98;104899;1274;61157;-24
2022/02/13 08:24:19;;;;;;;1.20;0.90;;;;;;;-1.04;69.41;100359.92;105096;1274;61117;-24
2022/02/13 08:26:50;;;;;;;3.90;1.90;;;;;;;-0.79;68.78;100349.19;104886;1274;75530;-24
2022/02/13 08:29:18;;;;;;;2.80;1.90;;;;;;;-0.66;67.97;100343.05;104863;1274;75063;-24
2022/02/13 08:31:46;;;;;;;4.40;1.50;;;;;;;-0.71;67.41;100347.21;105096;1274;74292;-24
2022/02/13 08:34:16;;;;;;;3.00;1.70;;;;;;;-0.66;67.16;100343.73;105118;1274;61134;-24
2022/02/13 08:36:44;;;;;;;2.80;1.70;;;;;;;-0.58;67.76;100351.31;105096;1274;62000;-24
2022/02/13 08:39:12;;;;;;;3.60;0.90;;;;;;;-0.37;67.38;100349.95;105039;1274;74556;-24
2022/02/13 08:41:41;;;;;;;2.70;1.20;;;;;;;-0.18;67.53;100350.70;104872;1274;74882;-23
2022/02/13 08:44:09;;;;;;;4.00;1.10;;;;;;;-0.00;66.32;100350.91;105109;1274;74440;-23
2022/02/13 08:46:37;;;;;;;1.00;0.90;;;;;;;0.08;64.65;100351.10;105073;1274;61030;-24
2022/02/13 08:49:06;;;;;;;1.10;0.80;;;;;;;0.14;63.86;100353.73;105109;1274;61334;-24
2022/02/13 08:51:39;;;;;;;2.50;1.40;;;;;;;0.20;64.27;100350.89;105084;1274;75479;-23
2022/02/13 08:54:07;;;;;;;2.10;1.70;;;;;;;0.35;63.74;100349.96;105074;1274;75672;-24
2022/02/13 08:56:36;;;;;;;1.90;1.30;;;;;;;0.11;62.56;100347.30;104810;1277;73924;-23
2022/02/13 08:59:04;;;;;;;2.70;1.40;;;;;;;0.25;62.39;100353.74;104785;1277;61266;-24
2022/02/13 09:01:32;;;;;;;2.40;1.30;;;;;;;0.18;61.56;100340.71;104714;1277;61284;-23
2022/02/13 09:04:01;;;;;;;1.70;1.00;;;;;;;0.30;62.24;100348.34;104794;1276;75545;-23
2022/02/13 09:06:29;;;;;;;2.30;1.60;;;;;;;0.47;62.07;100348.36;104744;1277;75503;-23
2022/02/13 09:08:58;;;;;;;3.90;1.70;;;;;;;0.55;60.88;100341.20;104582;1277;74553;-23
2022/02/13 09:11:26;;;;;;;3.00;1.10;;;;;;;0.58;61.35;100336.54;104577;1277;61024;-22
2022/02/13 09:13:57;;;;;;;1.90;1.10;;;;;;;0.64;60.89;100335.73;104827;1277;61053;-23
2022/02/13 09:16:25;;;;;;;2.00;1.10;;;;;;;0.60;61.54;100329.98;104788;1277;75560;-23
2022/02/13 09:18:56;;;;;;;4.20;1.20;;;;;;;0.88;61.77;100335.42;104800;1277;75910;-23
2022/02/13 09:21:24;;;;;;;2.70;1.10;;;;;;;1.00;60.07;100332.09;104599;1277;74197;-23
2022/02/13 09:23:54;;;;;;;2.90;1.10;;;;;;;0.92;59.96;100327.30;104695;1277;61229;-22
2022/02/13 09:26:22;;;;;;;2.70;1.50;;;;;;;1.20;59.52;100323.98;104633;1277;61077;-23
2022/02/13 09:28:51;;;;;;;2.20;1.10;;;;;;;1.20;58.27;100327.05;104785;1277;75401;-22
2022/02/13 09:31:19;;;;;;;1.10;0.90;;;;;;;1.43;58.28;100324.13;104831;1277;75402;-23
2022/02/13 09:33:48;;;;;;;3.20;1.10;;;;;;;1.59;58.08;100324.63;104840;1277;74200;-23
2022/02/13 09:36:19;;;;;;;1.80;1.30;;;;;;;1.66;57.50;100321.55;104832;1276;61039;-22
2022/02/13 09:38:48;;;;;;;4.00;1.50;;;;;;;1.71;57.65;100319.71;104796;1276;61175;-23
2022/02/13 09:41:18;;;;;;;1.60;1.10;;;;;;;1.69;57.68;100318.73;104705;1277;75707;-23
2022/02/13 09:43:48;;;;;;;1.60;1.20;;;;;;;1.62;57.37;100322.31;104500;1277;76155;-24
2022/02/13 09:46:20;;;;;;;2.30;1.20;;;;;;;1.75;57.59;100309.00;104747;1276;73247;-23
2022/02/13 09:48:49;;;;;;;4.20;1.80;;;;;;;1.87;57.29;100312.13;104610;1277;61240;-23
2022/02/13 09:51:19;;;;;;;2.50;1.30;;;;;;;1.89;56.73;100302.66;104407;1277;61195;-23
2022/02/13 09:53:47;;;;;;;1.70;0.90;;;;;;;1.73;57.03;100296.05;104659;1275;74273;-23
2022/02/13 09:56:15;;;;;;;4.40;2.00;;;;;;;1.51;56.98;100287.67;105057;1274;75057;-23
2022/02/13 09:58:44;;;;;;;3.70;1.50;;;;;;;1.60;58.10;100294.46;105092;1274;74228;-24
2022/02/13 10:01:12;;;;;;;2.10;1.40;;;;;;;1.58;57.00;100293.14;105089;1274;61140;-23
2022/02/13 10:03:42;;;;;;;0.80;0.70;;;;;;;1.85;58.20;100294.86;104915;1274;62203;-23
2022/02/13 10:06:13;;;;;;;1.60;1.10;;;;;;;2.17;57.08;100284.62;104586;1274;73632;-24
2022/02/13 10:08:43;;;;;;;2.20;0.90;;;;;;;2.29;57.21;100281.73;104662;1274;75190;-23
2022/02/13 10:11:25;;;;;;;3.20;1.40;;;;;;;1.94;57.99;100278.39;104514;1274;73312;-25
2022/02/13 10:13:59;;;;;;;2.10;1.50;;;;;;;1.83;58.15;100275.91;104596;1274;62396;-23
2022/02/13 10:16:30;;;;;;;2.50;1.40;;;;;;;2.02;58.01;100271.00;104457;1274;61386;-23
2022/02/13 10:19:07;;;;;;;1.80;1.40;;;;;;;2.06;58.36;100271.90;104707;1274;75802;-23
2022/02/13 10:21:42;;;;;;;2.30;1.60;;;;;;;2.31;57.37;100267.13;104766;1274;75945;-23
2022/02/13 10:24:28;;;;;;;3.70;1.90;;;;;;;2.00;57.83;100259.56;104799;1274;74554;-23
2022/02/13 10:26:57;;;;;;;3.90;1.90;;;;;;;2.05;58.15;100253.75;104762;1274;61307;-23
2022/02/13 10:29:30;;;;;;;2.80;2.20;;;;;;;2.22;58.29;100255.02;105075;1274;61073;-23
2022/02/13 10:32:18;;;;;;;3.80;1.40;;;;;;;2.23;57.99;100246.93;104652;1274;75349;-23
2022/02/13 10:34:58;;;;;;;2.30;1.60;;;;;;;2.30;58.79;100242.46;104612;1274;74884;-23
2022/02/13 10:37:36;;;;;;;3.20;2.30;;;;;;;2.59;58.55;100235.12;104623;1274;74129;-24
2022/02/13 10:40:06;;;;;;;3.30;2.10;;;;;;;2.66;57.71;100233.52;104742;1275;61270;-23
2022/02/13 10:42:34;;;;;;;4.00;1.60;;;;;;;2.64;58.59;100228.31;104337;1274;61143;-22
2022/02/13 10:45:28;;;;;;;2.40;2.10;;;;;;;2.79;58.05;100228.88;104640;1274;75569;-24
2022/02/13 10:48:06;;;;;;;3.10;2.00;;;;;;;2.93;58.12;100223.15;105013;1274;76002;-23
2022/02/13 10:50:36;;;;;;;2.10;1.30;;;;;;;2.96;57.76;100221.15;104904;1274;74201;-24
2022/02/13 10:53:06;;;;;;;3.50;1.50;;;;;;;2.75;57.54;100215.09;104757;1274;61114;-22
2022/02/13 10:55:35;;;;;;;4.60;2.40;;;;;;;3.02;58.26;100218.04;104637;1274;61109;-23
2022/02/13 10:58:04;;;;;;;3.90;1.90;;;;;;;3.11;57.64;100213.13;104666;1275;74618;-24
2022/02/13 11:00:37;;;;;;;4.00;2.10;;;;;;;3.15;57.82;100217.14;104783;1274;75869;-24
2022/02/13 11:03:08;;;;;;;6.20;2.50;;;;;;;3.18;57.80;100208.81;105047;1274;74422;-22
2022/02/13 11:05:40;;;;;;;2.90;1.70;;;;;;;3.05;57.67;100199.27;104851;1274;61160;-23
2022/02/13 11:08:12;;;;;;;4.10;1.70;;;;;;;2.96;58.31;100202.63;104846;1274;61070;-25
2022/02/13 11:10:44;;;;;;;1.40;1.20;;;;;;;3.10;58.17;100195.48;104602;1274;74105;-24
2022/02/13 11:13:12;;;;;;;3.80;1.80;;;;;;;3.21;57.93;100195.50;104679;1274;76225;-24
2022/02/13 11:15:42;;;;;;;5.40;1.70;;;;;;;3.50;56.99;100191.61;104692;1274;73890;-22
2022/02/13 11:18:17;;;;;;;3.40;2.20;;;;;;;3.43;56.82;100187.23;104699;1274;61124;-24
2022/02/13 11:20:45;;;;;;;4.50;1.40;;;;;;;3.38;57.58;100185.68;104568;1274;61017;-24
2022/02/13 11:23:19;;;;;;;3.10;1.60;;;;;;;3.51;56.99;100185.40;104918;1274;75567;-22
2022/02/13 11:25:48;;;;;;;2.50;1.80;;;;;;;3.29;56.61;100179.60;104900;1274;76008;-24
2022/02/13 11:28:26;;;;;;;2.50;1.50;;;;;;;3.43;57.48;100170.24;104840;1274;74122;-23
2022/02/13 11:30:57;;;;;;;2.10;1.50;;;;;;;3.67;56.96;100162.02;104787;1275;61096;-23